createdAt,value
2022-09-09T00:00:24.745Z,97.96
2022-09-09T00:02:59.742Z,97.97
2022-09-09T00:05:34.130Z,97.95
2022-09-09T00:08:06.276Z,97.93
2022-09-09T00:10:37.516Z,97.91
2022-09-09T00:13:17.075Z,97.88
2022-09-09T00:15:55.457Z,97.88
2022-09-09T00:18:30.264Z,97.90
2022-09-09T00:21:03.983Z,97.94
2022-09-09T00:23:33.519Z,97.93
2022-09-09T00:26:07.254Z,97.96
2022-09-09T00:28:40.754Z,97.97
2022-09-09T00:31:16.484Z,97.97
2022-09-09T00:33:46.856Z,98.01
2022-09-09T00:36:19.119Z,98.06
2022-09-09T00:38:52.288Z,98.07
2022-09-09T00:41:24.814Z,98.03
2022-09-09T00:43:59.816Z,98.06
2022-09-09T00:46:45.558Z,98.06
2022-09-09T00:49:23.823Z,98.09
2022-09-09T00:52:03.660Z,98.17
2022-09-09T00:54:40.461Z,98.22
2022-09-09T00:57:16.411Z,98.20
2022-09-09T00:59:50.144Z,98.16
2022-09-09T01:02:28.983Z,98.18
2022-09-09T01:05:01.928Z,98.16
2022-09-09T01:07:31.334Z,98.18
2022-09-09T01:10:03.196Z,98.23
2022-09-09T01:12:37.730Z,98.25
2022-09-09T01:15:13.238Z,98.25
2022-09-09T01:17:54.919Z,98.26
2022-09-09T01:20:27.039Z,98.27
2022-09-09T01:23:07.439Z,98.25
2022-09-09T01:26:23.855Z,98.23
2022-09-09T01:28:56.723Z,98.25
2022-09-09T01:31:29.091Z,98.28
2022-09-09T01:33:57.470Z,98.23
2022-09-09T01:36:32.210Z,98.32
2022-09-09T01:39:01.095Z,98.26
2022-09-09T01:41:29.676Z,98.29
2022-09-09T01:44:00.211Z,98.29
2022-09-09T01:46:30.432Z,98.30
2022-09-09T01:48:59.518Z,98.30
2022-09-09T01:51:32.893Z,98.31
2022-09-09T01:54:01.155Z,98.32
2022-09-09T01:56:38.414Z,98.33
2022-09-09T01:59:21.260Z,98.27
2022-09-09T02:02:02.257Z,98.28
2022-09-09T02:04:39.659Z,98.29
2022-09-09T02:07:16.488Z,98.33
2022-09-09T02:09:46.968Z,98.27
2022-09-09T02:12:18.364Z,98.28
2022-09-09T02:14:52.155Z,98.26
2022-09-09T02:17:26.155Z,98.31
2022-09-09T02:19:59.059Z,98.32
2022-09-09T02:22:30.110Z,98.33
2022-09-09T02:25:06.457Z,98.29
2022-09-09T02:27:34.983Z,98.39
2022-09-09T02:30:07.336Z,98.44
2022-09-09T02:32:36.414Z,98.42
2022-09-09T02:35:08.230Z,98.43
2022-09-09T02:37:39.292Z,98.43
2022-09-09T02:40:09.720Z,98.41
2022-09-09T02:42:41.955Z,98.43
2022-09-09T02:45:16.411Z,98.42
2022-09-09T02:47:50.737Z,98.44
2022-09-09T02:50:22.698Z,98.42
2022-09-09T02:53:01.215Z,98.41
2022-09-09T02:55:38.846Z,98.42
2022-09-09T02:58:10.713Z,98.45
2022-09-09T03:00:41.697Z,98.49
2022-09-09T03:03:11.645Z,98.44
2022-09-09T03:05:44.168Z,98.46
2022-09-09T03:08:15.071Z,98.46
2022-09-09T03:10:43.552Z,98.43
2022-09-09T03:13:14.154Z,98.44
2022-09-09T03:15:46.504Z,98.39
2022-09-09T03:18:14.459Z,98.42
2022-09-09T03:20:52.031Z,98.45
2022-09-09T03:23:20.304Z,98.47
2022-09-09T03:25:49.371Z,98.47
2022-09-09T03:28:18.508Z,98.51
2022-09-09T03:30:49.509Z,98.51
2022-09-09T03:33:18.852Z,98.50
2022-09-09T03:35:49.859Z,98.49
2022-09-09T03:38:18.473Z,98.41
2022-09-09T03:40:56.159Z,98.35
2022-09-09T03:43:24.662Z,98.45
2022-09-09T03:45:56.652Z,98.49
2022-09-09T03:48:25.300Z,98.53
2022-09-09T03:50:55.598Z,98.51
2022-09-09T03:53:25.721Z,98.50
2022-09-09T03:55:56.599Z,98.44
2022-09-09T03:58:27.688Z,98.42
2022-09-09T04:00:58.901Z,98.42
2022-09-09T04:03:28.186Z,98.36
2022-09-09T04:05:58.304Z,98.34
2022-09-09T04:08:27.354Z,98.27
2022-09-09T04:10:59.061Z,98.28
2022-09-09T04:13:27.886Z,98.24
2022-09-09T04:16:02.776Z,98.31
2022-09-09T04:18:31.594Z,98.32
2022-09-09T04:21:00.806Z,98.28
2022-09-09T04:23:30.802Z,98.34
2022-09-09T04:26:00.562Z,98.40
2022-09-09T04:28:31.356Z,98.38
2022-09-09T04:31:06.633Z,98.40
2022-09-09T04:33:39.925Z,98.44
2022-09-09T04:36:09.588Z,98.49
2022-09-09T04:38:38.079Z,98.48
2022-09-09T04:41:08.268Z,98.54
2022-09-09T04:43:36.764Z,98.55
2022-09-09T04:46:07.216Z,98.56
2022-09-09T04:48:36.703Z,98.58
2022-09-09T04:51:10.409Z,98.61
2022-09-09T04:53:39.089Z,98.68
2022-09-09T04:56:11.313Z,98.72
2022-09-09T04:58:40.194Z,98.80
2022-09-09T05:01:13.471Z,98.80
2022-09-09T05:03:41.753Z,98.79
2022-09-09T05:06:11.971Z,98.80
2022-09-09T05:08:41.482Z,98.87
2022-09-09T05:11:16.723Z,98.87
2022-09-09T05:13:45.127Z,98.74
2022-09-09T05:16:15.268Z,98.65
2022-09-09T05:18:44.653Z,98.42
2022-09-09T05:21:13.622Z,98.14
2022-09-09T05:23:41.815Z,98.20
2022-09-09T05:26:17.411Z,98.12
2022-09-09T05:28:46.368Z,97.81
2022-09-09T05:31:17.398Z,97.37
2022-09-09T05:33:47.363Z,97.01
2022-09-09T05:36:17.699Z,96.81
2022-09-09T05:38:46.312Z,96.28
2022-09-09T05:41:16.610Z,95.80
2022-09-09T05:43:45.484Z,94.75
2022-09-09T05:46:16.448Z,94.36
2022-09-09T05:48:47.561Z,93.20
2022-09-09T05:51:18.342Z,92.41
2022-09-09T05:53:47.661Z,91.31
2022-09-09T05:56:18.503Z,89.98
2022-09-09T05:58:48.015Z,88.92
2022-09-09T06:01:19.236Z,87.90
2022-09-09T06:03:48.445Z,86.66
2022-09-09T06:06:21.874Z,85.81
2022-09-09T06:08:52.625Z,84.28
2022-09-09T06:11:22.651Z,82.11
2022-09-09T06:13:54.453Z,80.26
2022-09-09T06:16:25.774Z,78.00
2022-09-09T06:18:55.150Z,77.90
2022-09-09T06:21:24.639Z,77.38
2022-09-09T06:23:56.766Z,76.63
2022-09-09T06:26:29.981Z,76.38
2022-09-09T06:28:58.957Z,76.32
2022-09-09T06:31:31.333Z,76.25
2022-09-09T06:34:00.899Z,76.52
2022-09-09T06:36:29.919Z,76.19
2022-09-09T06:38:58.172Z,75.65
2022-09-09T06:41:28.837Z,74.51
2022-09-09T06:43:57.445Z,73.82
2022-09-09T06:46:28.396Z,72.51
2022-09-09T06:48:59.952Z,71.23
2022-09-09T06:51:29.251Z,69.79
2022-09-09T06:53:59.215Z,71.36
2022-09-09T06:56:29.187Z,70.58
2022-09-09T06:58:59.403Z,69.72
2022-09-09T07:01:29.029Z,69.28
2022-09-09T07:03:59.993Z,69.13
2022-09-09T07:06:29.191Z,69.01
2022-09-09T07:09:00.075Z,69.17
2022-09-09T07:11:29.691Z,69.65
2022-09-09T07:13:59.893Z,70.32
2022-09-09T07:16:30.344Z,70.20
2022-09-09T07:18:59.713Z,71.42
2022-09-09T07:21:29.223Z,71.49
2022-09-09T07:23:57.404Z,72.02
2022-09-09T07:26:26.543Z,72.79
2022-09-09T07:28:54.703Z,74.12
2022-09-09T07:31:24.985Z,74.04
2022-09-09T07:33:53.243Z,74.86
2022-09-09T07:36:24.328Z,74.99
2022-09-09T07:38:54.781Z,75.35
2022-09-09T07:41:24.301Z,75.60
2022-09-09T07:43:54.843Z,76.05
2022-09-09T07:46:25.105Z,75.54
2022-09-09T07:48:55.216Z,75.85
2022-09-09T07:51:26.281Z,76.08
2022-09-09T07:53:55.369Z,75.81
2022-09-09T07:56:24.616Z,73.46
2022-09-09T07:58:54.184Z,71.40
2022-09-09T08:01:24.560Z,70.20
2022-09-09T08:03:56.781Z,70.78
2022-09-09T08:06:27.995Z,70.98
2022-09-09T08:08:56.831Z,71.82
2022-09-09T08:11:26.296Z,72.41
2022-09-09T08:13:59.033Z,72.62
2022-09-09T08:16:32.868Z,72.96
2022-09-09T08:19:01.715Z,72.92
2022-09-09T08:21:32.865Z,73.17
2022-09-09T08:24:02.754Z,72.84
2022-09-09T08:26:32.261Z,72.58
2022-09-09T08:29:01.671Z,71.92
2022-09-09T08:31:31.885Z,71.97
2022-09-09T08:34:01.476Z,71.32
2022-09-09T08:36:35.353Z,71.54
2022-09-09T08:39:03.491Z,71.40
2022-09-09T08:41:40.488Z,72.25
2022-09-09T08:44:11.900Z,72.21
2022-09-09T08:46:47.246Z,72.85
2022-09-09T08:49:28.933Z,73.13
2022-09-09T08:52:04.653Z,73.32
2022-09-09T08:54:51.725Z,73.69
2022-09-09T08:57:23.117Z,73.92
2022-09-09T08:59:53.261Z,73.60
2022-09-09T09:02:25.793Z,73.26
2022-09-09T09:05:01.218Z,73.93
2022-09-09T09:07:39.263Z,73.12
2022-09-09T09:10:37.547Z,73.49
2022-09-09T09:13:02.656Z,70.76
2022-09-09T09:15:33.578Z,70.46
2022-09-09T09:18:01.843Z,67.67
2022-09-09T09:20:36.326Z,65.93
2022-09-09T09:23:06.547Z,64.78
2022-09-09T09:25:37.831Z,63.74
2022-09-09T09:28:18.374Z,62.16
2022-09-09T09:30:50.559Z,61.74
2022-09-09T09:33:19.811Z,61.85
2022-09-09T09:35:47.948Z,61.61
2022-09-09T09:41:09.023Z,59.47
2022-09-09T09:43:38.614Z,58.41
2022-09-09T09:46:17.285Z,58.61
2022-09-09T09:48:47.332Z,58.50
2022-09-09T09:51:20.030Z,58.57
2022-09-09T09:53:50.538Z,58.75
2022-09-09T09:56:18.809Z,58.48
2022-09-09T09:58:52.092Z,58.91
2022-09-09T10:01:23.172Z,57.69
2022-09-09T10:03:53.456Z,57.18
2022-09-09T10:06:34.346Z,59.41
2022-09-09T10:09:05.479Z,58.64
2022-09-09T10:11:44.895Z,58.90
2022-09-09T10:14:21.792Z,59.42
2022-09-09T10:17:01.804Z,57.90
2022-09-09T10:19:34.943Z,59.23
2022-09-09T10:22:14.094Z,57.70
2022-09-09T10:25:03.538Z,56.34
2022-09-09T10:27:36.290Z,56.77
2022-09-09T10:30:12.133Z,55.61
2022-09-09T10:32:44.715Z,55.53
2022-09-09T10:35:17.033Z,55.41
2022-09-09T10:37:58.642Z,55.94
2022-09-09T10:40:34.698Z,54.85
2022-09-09T10:43:17.944Z,55.03
2022-09-09T10:45:55.226Z,53.56
2022-09-09T10:48:42.830Z,54.26
2022-09-09T10:51:24.127Z,55.02
2022-09-09T10:54:00.891Z,56.27
2022-09-09T10:56:31.520Z,53.95
2022-09-09T10:59:02.764Z,53.61
2022-09-09T11:01:36.000Z,54.41
2022-09-09T11:04:08.537Z,54.22
2022-09-09T11:06:42.024Z,54.75
2022-09-09T11:09:18.116Z,54.75
2022-09-09T11:11:52.491Z,54.41
2022-09-09T11:14:25.542Z,54.53
2022-09-09T11:16:56.373Z,55.13
2022-09-09T11:19:28.889Z,55.63
2022-09-09T11:21:59.337Z,55.11
2022-09-09T11:24:34.202Z,54.71
2022-09-09T11:27:10.539Z,56.30
2022-09-09T11:29:53.384Z,56.81
2022-09-09T11:32:40.886Z,54.85
2022-09-09T11:35:23.286Z,54.59
2022-09-09T11:38:12.076Z,53.08
2022-09-09T11:40:41.999Z,52.05
2022-09-09T11:43:14.699Z,54.19
2022-09-09T11:45:44.490Z,53.94
2022-09-09T11:48:27.759Z,54.66
2022-09-09T11:51:16.100Z,53.95
2022-09-09T11:53:52.996Z,54.34
2022-09-09T11:56:29.715Z,55.58
2022-09-09T11:59:04.050Z,55.23
2022-09-09T12:01:38.791Z,56.69
2022-09-09T12:04:22.085Z,56.85
2022-09-09T12:06:53.415Z,55.66
2022-09-09T12:09:27.073Z,56.59
2022-09-09T12:11:55.513Z,57.56
2022-09-09T12:14:38.253Z,56.18
2022-09-09T12:17:21.549Z,55.73
2022-09-09T12:19:50.536Z,56.08
2022-09-09T12:22:26.704Z,56.92
2022-09-09T12:24:59.152Z,56.77
2022-09-09T12:27:30.264Z,56.23
2022-09-09T12:30:04.943Z,55.72
2022-09-09T12:32:33.268Z,55.68
2022-09-09T12:35:02.872Z,56.25
2022-09-09T12:37:34.840Z,57.47
2022-09-09T12:40:07.757Z,56.43
2022-09-09T12:42:42.254Z,55.31
2022-09-09T12:45:22.790Z,56.04
2022-09-09T12:47:55.338Z,57.36
2022-09-09T12:50:26.692Z,57.51
2022-09-09T12:52:56.771Z,58.15
2022-09-09T12:55:27.107Z,58.56
2022-09-09T12:57:55.820Z,59.65
2022-09-09T13:00:27.825Z,59.12
2022-09-09T13:02:56.727Z,60.34
2022-09-09T13:05:26.495Z,60.28
2022-09-09T13:08:03.086Z,60.43
2022-09-09T13:10:51.687Z,61.77
2022-09-09T13:13:23.955Z,62.08
2022-09-09T13:15:57.023Z,62.56
2022-09-09T13:18:29.531Z,62.65
2022-09-09T13:20:59.007Z,63.03
2022-09-09T13:23:30.627Z,63.58
2022-09-09T13:26:04.423Z,63.81
2022-09-09T13:28:34.418Z,63.30
2022-09-09T13:31:05.928Z,63.87
2022-09-09T13:36:32.578Z,64.04
2022-09-09T13:39:02.542Z,64.08
2022-09-09T13:41:33.503Z,63.77
2022-09-09T13:44:02.411Z,63.48
2022-09-09T13:46:36.652Z,62.86
2022-09-09T13:49:22.602Z,62.54
2022-09-09T13:51:51.669Z,61.53
2022-09-09T13:54:21.947Z,61.55
2022-09-09T13:56:50.719Z,59.56
2022-09-09T13:59:22.397Z,58.97
2022-09-09T14:01:55.677Z,59.39
2022-09-09T14:04:32.734Z,59.05
2022-09-09T14:07:03.500Z,60.29
2022-09-09T14:09:31.610Z,61.05
2022-09-09T14:11:59.676Z,60.49
2022-09-09T14:14:27.975Z,59.90
2022-09-09T14:16:57.761Z,60.23
2022-09-09T14:19:26.338Z,60.07
2022-09-09T14:21:55.727Z,60.45
2022-09-09T14:24:24.038Z,60.25
2022-09-09T14:26:53.900Z,60.52
2022-09-09T14:29:37.879Z,61.39
2022-09-09T14:32:32.047Z,60.88
2022-09-09T14:35:01.603Z,61.08
2022-09-09T14:37:37.083Z,61.83
2022-09-09T14:40:24.199Z,59.86
2022-09-09T14:42:52.781Z,59.78
2022-09-09T14:45:23.394Z,59.05
2022-09-09T14:47:53.595Z,60.13
2022-09-09T14:50:21.817Z,60.44
2022-09-09T14:52:51.488Z,60.08
2022-09-09T14:55:20.141Z,59.71
2022-09-09T14:57:48.540Z,59.11
2022-09-09T15:00:17.173Z,58.53
2022-09-09T15:02:46.859Z,58.82
2022-09-09T15:05:18.047Z,60.22
2022-09-09T15:07:48.186Z,59.29
2022-09-09T15:10:18.194Z,59.16
2022-09-09T15:12:46.779Z,60.43
2022-09-09T15:15:15.237Z,59.79
2022-09-09T15:17:44.634Z,59.69
2022-09-09T15:20:12.946Z,59.89
2022-09-09T15:22:43.071Z,60.41
2022-09-09T15:25:13.523Z,61.39
2022-09-09T15:27:43.817Z,60.61
2022-09-09T15:30:13.343Z,61.90
2022-09-09T15:32:41.795Z,61.97
2022-09-09T15:35:10.171Z,62.45
2022-09-09T15:37:38.464Z,62.36
2022-09-09T15:40:10.327Z,63.36
2022-09-09T15:42:38.460Z,63.33
2022-09-09T15:45:07.553Z,64.68
2022-09-09T15:47:36.631Z,64.46
2022-09-09T15:50:07.728Z,65.00
2022-09-09T15:52:36.212Z,65.27
2022-09-09T15:55:04.805Z,65.32
2022-09-09T15:57:34.168Z,66.03
2022-09-09T16:00:05.857Z,66.52
2022-09-09T16:02:34.453Z,66.81
2022-09-09T16:05:03.201Z,66.23
2022-09-09T16:07:31.475Z,66.60
2022-09-09T16:09:59.545Z,66.55
2022-09-09T16:12:30.387Z,67.83
2022-09-09T16:15:00.581Z,68.10
2022-09-09T16:17:30.457Z,68.02
2022-09-09T16:20:02.560Z,68.52
2022-09-09T16:22:32.031Z,68.12
2022-09-09T16:25:00.608Z,68.53
2022-09-09T16:27:29.483Z,69.11
2022-09-09T16:30:02.849Z,69.15
2022-09-09T16:32:31.162Z,69.43
2022-09-09T16:34:59.494Z,69.94
2022-09-09T16:37:27.522Z,68.98
2022-09-09T16:39:59.977Z,70.29
2022-09-09T16:42:28.791Z,71.03
2022-09-09T16:44:57.762Z,70.90
2022-09-09T16:47:33.560Z,70.69
2022-09-09T16:50:03.049Z,71.23
2022-09-09T16:52:31.479Z,71.34
2022-09-09T16:54:59.967Z,71.90
2022-09-09T16:57:31.244Z,72.60
2022-09-09T17:00:00.612Z,73.03
2022-09-09T17:02:32.687Z,73.32
2022-09-09T17:05:01.214Z,74.50
2022-09-09T17:07:29.550Z,74.63
2022-09-09T17:09:57.825Z,75.15
2022-09-09T17:12:26.491Z,74.98
2022-09-09T17:14:57.235Z,75.01
2022-09-09T17:17:32.182Z,75.79
2022-09-09T17:20:03.481Z,75.65
2022-09-09T17:22:32.880Z,76.03
2022-09-09T17:25:01.205Z,75.35
2022-09-09T17:27:32.483Z,76.00
2022-09-09T17:30:00.728Z,76.04
2022-09-09T17:32:29.793Z,76.30
2022-09-09T17:34:58.339Z,77.45
2022-09-09T17:37:28.015Z,78.01
2022-09-09T17:39:58.914Z,78.16
2022-09-09T17:42:28.057Z,78.23
2022-09-09T17:44:56.147Z,78.12
2022-09-09T17:47:24.824Z,78.26
2022-09-09T17:49:54.066Z,78.61
2022-09-09T17:52:22.539Z,78.88
2022-09-09T17:54:52.110Z,79.76
2022-09-09T17:57:21.342Z,79.48
2022-09-09T17:59:50.467Z,79.57
2022-09-09T18:02:19.169Z,79.69
2022-09-09T18:04:47.502Z,80.06
2022-09-09T18:07:15.762Z,80.17
2022-09-09T18:09:43.884Z,80.35
2022-09-09T18:12:13.721Z,80.65
2022-09-09T18:14:41.726Z,80.64
2022-09-09T18:17:11.252Z,80.42
2022-09-09T18:19:39.498Z,80.46
2022-09-09T18:22:08.231Z,80.32
2022-09-09T18:24:38.934Z,80.23
2022-09-09T18:27:07.424Z,80.17
2022-09-09T18:29:37.039Z,80.00
2022-09-09T18:32:05.422Z,79.83
2022-09-09T18:34:33.791Z,79.46
2022-09-09T18:37:02.357Z,79.11
2022-09-09T18:39:30.873Z,78.77
2022-09-09T18:42:03.872Z,78.66
2022-09-09T18:44:33.633Z,78.67
2022-09-09T18:47:04.244Z,78.74
2022-09-09T18:49:33.252Z,78.72
2022-09-09T18:52:02.782Z,78.49
2022-09-09T18:54:33.596Z,77.55
2022-09-09T18:57:02.103Z,77.27
2022-09-09T18:59:30.681Z,76.60
2022-09-09T19:01:59.627Z,76.47
2022-09-09T19:04:29.286Z,76.50
2022-09-09T19:06:58.840Z,77.15
2022-09-09T19:09:28.528Z,77.07
2022-09-09T19:12:00.933Z,77.56
2022-09-09T19:14:29.977Z,77.93
2022-09-09T19:16:59.487Z,78.19
2022-09-09T19:19:32.346Z,78.43
2022-09-09T19:22:01.271Z,78.77
2022-09-09T19:24:31.585Z,79.15
2022-09-09T19:27:03.385Z,79.02
2022-09-09T19:29:33.632Z,79.44
2022-09-09T19:34:52.663Z,79.99
2022-09-09T19:37:21.073Z,80.54
2022-09-09T19:39:50.666Z,80.72
2022-09-09T19:42:19.026Z,80.77
2022-09-09T19:44:47.418Z,80.60
2022-09-09T19:47:17.128Z,80.82
2022-09-09T19:49:47.467Z,80.89
2022-09-09T19:52:20.904Z,81.13
2022-09-09T19:54:48.999Z,81.11
2022-09-09T19:57:17.554Z,81.10
2022-09-09T19:59:45.637Z,81.58
2022-09-09T20:02:15.920Z,81.61
2022-09-09T20:04:44.951Z,81.70
2022-09-09T20:07:13.072Z,81.65
2022-09-09T20:09:42.801Z,81.34
2022-09-09T20:12:11.231Z,81.76
2022-09-09T20:14:40.243Z,81.39
2022-09-09T20:17:09.051Z,81.37
2022-09-09T20:19:37.429Z,81.07
2022-09-09T20:22:06.660Z,81.21
2022-09-09T20:24:38.417Z,81.11
2022-09-09T20:27:09.546Z,81.42
2022-09-09T20:29:39.474Z,81.31
2022-09-09T20:32:08.048Z,81.34
2022-09-09T20:34:36.774Z,81.57
2022-09-09T20:37:06.204Z,81.69
2022-09-09T20:39:36.478Z,81.36
2022-09-09T20:42:05.504Z,81.72
2022-09-09T20:44:36.193Z,81.73
2022-09-09T20:47:09.283Z,81.98
2022-09-09T20:49:37.603Z,81.53
2022-09-09T20:52:07.248Z,81.72
2022-09-09T20:54:37.593Z,81.78
2022-09-09T20:57:07.204Z,81.87
2022-09-09T20:59:37.410Z,81.86
2022-09-09T21:02:06.870Z,81.95
2022-09-09T21:04:36.958Z,81.80
2022-09-09T21:07:07.757Z,81.97
2022-09-09T21:09:38.426Z,82.04
2022-09-09T21:12:07.450Z,82.17
2022-09-09T21:14:37.502Z,82.48
2022-09-09T21:17:06.561Z,82.73
2022-09-09T21:19:35.876Z,82.92
2022-09-09T21:22:04.205Z,83.27
2022-09-09T21:24:33.058Z,83.36
2022-09-09T21:27:01.863Z,83.51
2022-09-09T21:29:32.415Z,83.62
2022-09-09T21:32:03.661Z,83.78
2022-09-09T21:34:33.297Z,83.97
2022-09-09T21:37:02.306Z,84.26
2022-09-09T21:39:30.658Z,84.30
2022-09-09T21:42:02.001Z,84.25
2022-09-09T21:44:30.184Z,84.47
2022-09-09T21:46:58.492Z,84.44
2022-09-09T21:49:28.579Z,84.64
2022-09-09T21:51:58.371Z,84.72
2022-09-09T21:54:27.086Z,84.94
2022-09-09T21:56:57.696Z,85.13
2022-09-09T21:59:27.907Z,85.05
2022-09-09T22:01:56.448Z,85.11
2022-09-09T22:04:25.506Z,85.35
2022-09-09T22:06:55.313Z,85.64
2022-09-09T22:09:23.484Z,85.41
2022-09-09T22:11:52.762Z,85.58
2022-09-09T22:14:21.025Z,85.95
2022-09-09T22:16:49.140Z,85.74
2022-09-09T22:19:17.728Z,85.82
2022-09-09T22:21:49.372Z,85.83
2022-09-09T22:24:18.920Z,85.77
2022-09-09T22:26:47.337Z,86.07
2022-09-09T22:29:19.393Z,86.24
2022-09-09T22:31:48.072Z,86.19
2022-09-09T22:34:18.972Z,86.16
2022-09-09T22:36:48.117Z,86.27
2022-09-09T22:39:16.416Z,86.42
2022-09-09T22:41:48.243Z,86.78
2022-09-09T22:44:17.202Z,87.01
2022-09-09T22:46:46.752Z,87.14
2022-09-09T22:49:14.970Z,87.31
2022-09-09T22:51:47.394Z,87.25
2022-09-09T22:54:15.661Z,87.27
2022-09-09T22:56:44.132Z,87.36
2022-09-09T22:59:13.775Z,87.37
2022-09-09T23:01:42.155Z,87.54
2022-09-09T23:04:11.387Z,87.40
2022-09-09T23:06:41.250Z,87.34
2022-09-09T23:09:09.649Z,87.38
2022-09-09T23:11:38.509Z,87.40
2022-09-09T23:14:09.915Z,87.53
2022-09-09T23:16:40.801Z,87.59
2022-09-09T23:19:10.877Z,87.66
2022-09-09T23:21:40.801Z,87.69
2022-09-09T23:24:14.251Z,87.80
2022-09-09T23:26:43.612Z,87.87
2022-09-09T23:29:15.019Z,87.87
2022-09-09T23:32:01.636Z,87.97
2022-09-09T23:34:31.173Z,87.95
2022-09-09T23:37:02.311Z,87.99
2022-09-09T23:39:40.624Z,88.02
2022-09-09T23:42:09.666Z,88.27
2022-09-09T23:44:40.862Z,88.38
2022-09-09T23:47:11.327Z,88.46
2022-09-09T23:49:40.416Z,88.42
2022-09-09T23:52:09.634Z,88.17
2022-09-09T23:54:38.220Z,88.11
2022-09-09T23:57:08.022Z,88.09
2022-09-09T23:59:36.455Z,88.22
